createdAt,value
2022-11-28T00:00:22.432Z,16.15
2022-11-28T00:03:09.869Z,16.85
2022-11-28T00:05:36.942Z,16.13
2022-11-28T00:08:04.814Z,15.45
2022-11-28T00:10:33.103Z,17.58
2022-11-28T00:13:00.543Z,16.50
2022-11-28T00:15:27.539Z,16.67
2022-11-28T00:17:54.745Z,15.23
2022-11-28T00:20:21.677Z,13.70
2022-11-28T00:22:48.783Z,14.77
2022-11-28T00:25:15.890Z,14.00
2022-11-28T00:27:44.506Z,12.05
2022-11-28T00:30:12.216Z,12.13
2022-11-28T00:32:39.582Z,12.85
2022-11-28T00:35:06.956Z,13.35
2022-11-28T00:37:34.233Z,14.07
2022-11-28T00:40:01.131Z,13.20
2022-11-28T00:42:28.710Z,11.32
2022-11-28T00:44:56.939Z,12.13
2022-11-28T00:47:24.031Z,10.95
2022-11-28T00:49:51.868Z,12.68
2022-11-28T00:52:19.273Z,12.60
2022-11-28T00:54:46.411Z,14.40
2022-11-28T00:57:13.656Z,12.60
2022-11-28T00:59:40.682Z,13.32
2022-11-28T01:02:09.353Z,13.05
2022-11-28T01:04:36.359Z,12.88
2022-11-28T01:07:03.535Z,13.65
2022-11-28T01:09:30.601Z,13.45
2022-11-28T01:11:57.818Z,13.80
2022-11-28T01:14:25.979Z,14.05
2022-11-28T01:16:53.288Z,13.25
2022-11-28T01:19:21.755Z,12.77
2022-11-28T01:21:49.308Z,13.80
2022-11-28T01:24:17.200Z,13.25
2022-11-28T01:26:44.708Z,12.67
2022-11-28T01:29:11.776Z,11.80
2022-11-28T01:31:39.793Z,12.23
2022-11-28T01:34:06.911Z,12.10
2022-11-28T01:36:35.583Z,11.57
2022-11-28T01:39:02.512Z,12.63
2022-11-28T01:41:30.083Z,12.50
2022-11-28T01:43:59.163Z,11.73
2022-11-28T01:46:26.648Z,12.25
2022-11-28T01:48:56.628Z,11.23
2022-11-28T01:51:24.466Z,12.30
2022-11-28T01:53:53.532Z,13.05
2022-11-28T01:56:25.197Z,11.30
2022-11-28T01:58:57.731Z,10.45
2022-11-28T02:01:25.812Z,11.60
2022-11-28T02:03:54.325Z,12.02
2022-11-28T02:06:24.422Z,11.63
2022-11-28T02:08:53.438Z,11.75
2022-11-28T02:11:49.847Z,12.13
2022-11-28T02:14:33.396Z,11.15
2022-11-28T02:17:13.327Z,11.07
2022-11-28T02:20:24.712Z,11.50
2022-11-28T02:22:59.319Z,11.18
2022-11-28T02:26:02.705Z,10.57
2022-11-28T02:29:03.339Z,10.05
2022-11-28T02:32:06.857Z,10.70
2022-11-28T02:34:47.263Z,11.60
2022-11-28T02:37:26.125Z,10.13
2022-11-28T02:40:03.323Z,10.73
2022-11-28T02:42:40.322Z,10.85
2022-11-28T02:45:13.703Z,12.48
2022-11-28T02:47:45.932Z,10.75
2022-11-28T02:50:16.085Z,11.88
2022-11-28T02:52:47.403Z,11.85
2022-11-28T02:55:15.523Z,11.77
2022-11-28T02:57:47.895Z,11.35
2022-11-28T03:00:28.029Z,11.30
2022-11-28T03:03:15.949Z,12.23
2022-11-28T03:05:49.010Z,10.27
2022-11-28T03:08:33.692Z,11.18
2022-11-28T03:11:06.577Z,11.23
2022-11-28T03:13:41.979Z,11.25
2022-11-28T03:16:20.966Z,11.85
2022-11-28T03:19:00.095Z,13.07
2022-11-28T03:21:38.127Z,11.23
2022-11-28T03:24:10.378Z,11.95
2022-11-28T03:26:47.131Z,10.85
2022-11-28T03:29:20.826Z,11.27
2022-11-28T03:31:54.733Z,11.55
2022-11-28T03:34:29.313Z,9.85
2022-11-28T03:37:01.411Z,10.07
2022-11-28T03:39:31.986Z,8.55
2022-11-28T03:42:05.916Z,7.75
2022-11-28T03:44:40.567Z,8.40
2022-11-28T03:47:08.939Z,7.90
2022-11-28T03:49:40.351Z,6.70
2022-11-28T03:52:11.448Z,6.95
2022-11-28T03:54:47.661Z,7.05
2022-11-28T03:57:22.891Z,6.55
2022-11-28T03:59:52.416Z,6.30
2022-11-28T04:02:27.581Z,7.55
2022-11-28T04:05:02.244Z,7.80
2022-11-28T04:07:37.033Z,6.43
2022-11-28T04:10:09.258Z,6.63
2022-11-28T04:12:46.668Z,7.18
2022-11-28T04:15:17.653Z,6.25
2022-11-28T04:17:52.045Z,7.28
2022-11-28T04:20:28.685Z,5.97
2022-11-28T04:23:01.196Z,7.50
2022-11-28T04:25:32.591Z,6.78
2022-11-28T04:28:04.343Z,6.38
2022-11-28T04:30:32.302Z,5.78
2022-11-28T04:33:03.919Z,6.00
2022-11-28T04:35:37.610Z,6.03
2022-11-28T04:38:06.703Z,6.25
2022-11-28T04:40:38.859Z,6.43
2022-11-28T04:43:10.928Z,5.93
2022-11-28T04:45:44.392Z,6.25
2022-11-28T04:48:11.641Z,6.57
2022-11-28T04:50:46.909Z,6.05
2022-11-28T04:53:34.822Z,6.40
2022-11-28T04:56:07.525Z,6.25
2022-11-28T04:58:38.161Z,6.85
2022-11-28T05:01:10.283Z,6.72
2022-11-28T05:03:42.435Z,6.63
2022-11-28T05:06:23.999Z,6.00
2022-11-28T05:08:51.147Z,6.65
2022-11-28T05:11:18.648Z,6.82
2022-11-28T05:13:45.956Z,6.47
2022-11-28T05:16:17.571Z,6.93
2022-11-28T05:18:44.888Z,7.38
2022-11-28T05:21:13.623Z,6.65
2022-11-28T05:23:42.561Z,8.65
2022-11-28T05:28:37.609Z,7.57
2022-11-28T05:31:06.441Z,7.38
2022-11-28T05:33:33.546Z,7.50
2022-11-28T05:36:12.395Z,7.00
2022-11-28T05:38:41.591Z,7.43
2022-11-28T05:41:09.695Z,6.88
2022-11-28T05:43:36.914Z,7.82
2022-11-28T05:46:05.864Z,8.95
2022-11-28T05:48:32.895Z,22.10
2022-11-28T05:51:00.171Z,10.90
2022-11-28T05:53:27.398Z,8.10
2022-11-28T05:55:55.920Z,8.32
2022-11-28T05:58:22.990Z,6.50
2022-11-28T06:00:50.241Z,7.40
2022-11-28T06:03:17.177Z,8.52
2022-11-28T06:05:44.541Z,7.18
2022-11-28T06:08:12.813Z,6.95
2022-11-28T06:10:40.511Z,7.22
2022-11-28T06:13:09.176Z,6.53
2022-11-28T06:15:38.252Z,7.30
2022-11-28T06:18:05.407Z,7.68
2022-11-28T06:20:35.313Z,5.63
2022-11-28T06:23:04.955Z,7.38
2022-11-28T06:25:32.275Z,7.53
2022-11-28T06:27:59.216Z,8.55
2022-11-28T06:30:27.704Z,8.50
2022-11-28T06:32:54.628Z,9.80
2022-11-28T06:35:21.981Z,8.05
2022-11-28T06:37:48.916Z,7.57
2022-11-28T06:40:16.560Z,7.72
2022-11-28T06:42:43.479Z,7.10
2022-11-28T06:45:11.541Z,7.70
2022-11-28T06:47:39.864Z,8.00
2022-11-28T06:50:09.760Z,10.02
2022-11-28T06:52:36.774Z,7.85
2022-11-28T06:55:04.197Z,7.72
2022-11-28T06:57:32.740Z,6.57
2022-11-28T07:00:03.722Z,6.75
2022-11-28T07:02:30.710Z,7.20
2022-11-28T07:05:00.645Z,8.43
2022-11-28T07:07:27.668Z,6.90
2022-11-28T07:09:54.928Z,3.42
2022-11-28T07:12:21.915Z,5.22
2022-11-28T07:14:49.143Z,6.68
2022-11-28T07:17:16.151Z,5.90
2022-11-28T07:19:43.682Z,5.95
2022-11-28T07:22:12.243Z,6.53
2022-11-28T07:24:44.607Z,7.63
2022-11-28T07:27:11.583Z,5.53
2022-11-28T07:29:38.792Z,7.15
2022-11-28T07:32:10.737Z,7.88
2022-11-28T07:34:38.350Z,7.93
2022-11-28T07:37:05.250Z,7.40
2022-11-28T07:39:34.337Z,7.65
2022-11-28T07:42:01.126Z,8.02
2022-11-28T07:44:28.652Z,7.95
2022-11-28T07:46:56.073Z,6.78
2022-11-28T07:49:23.293Z,7.38
2022-11-28T07:51:50.312Z,7.65
2022-11-28T07:54:17.552Z,6.85
2022-11-28T07:59:33.318Z,7.72
2022-11-28T08:02:00.237Z,9.20
2022-11-28T08:04:27.814Z,9.43
2022-11-28T08:06:55.432Z,9.52
2022-11-28T08:09:23.067Z,9.07
2022-11-28T08:11:52.576Z,10.50
2022-11-28T08:14:20.334Z,9.13
2022-11-28T08:16:47.440Z,9.85
2022-11-28T08:19:14.635Z,9.10
2022-11-28T08:21:42.035Z,9.65
2022-11-28T08:24:10.592Z,9.40
2022-11-28T08:26:38.318Z,8.98
2022-11-28T08:29:06.935Z,9.45
2022-11-28T08:31:35.403Z,8.67
2022-11-28T08:34:05.884Z,8.63
2022-11-28T08:36:33.088Z,9.25
2022-11-28T08:39:24.111Z,10.68
2022-11-28T08:41:50.442Z,9.77
2022-11-28T08:44:19.269Z,9.43
2022-11-28T08:46:46.252Z,10.45
2022-11-28T08:49:14.597Z,9.50
2022-11-28T08:51:41.480Z,10.43
2022-11-28T08:54:09.131Z,8.30
2022-11-28T08:56:36.137Z,9.70
2022-11-28T08:59:04.168Z,9.23
2022-11-28T09:01:32.731Z,9.40
2022-11-28T09:04:00.761Z,9.05
2022-11-28T09:06:27.906Z,9.32
2022-11-28T09:08:55.166Z,9.45
2022-11-28T09:11:23.024Z,8.93
2022-11-28T09:13:50.664Z,10.17
2022-11-28T09:16:18.066Z,10.43
2022-11-28T09:18:46.811Z,9.98
2022-11-28T09:21:15.405Z,9.63
2022-11-28T09:23:44.259Z,9.82
2022-11-28T09:26:12.614Z,10.57
2022-11-28T09:28:40.718Z,10.38
2022-11-28T09:31:08.492Z,12.63
2022-11-28T09:33:36.135Z,10.35
2022-11-28T09:36:10.354Z,10.93
2022-11-28T09:38:38.021Z,10.75
2022-11-28T09:41:31.121Z,11.73
2022-11-28T09:44:03.141Z,10.85
2022-11-28T09:46:34.382Z,10.90
2022-11-28T09:49:09.337Z,10.93
2022-11-28T09:51:48.545Z,11.07
2022-11-28T09:54:22.577Z,10.77
2022-11-28T09:56:50.721Z,11.95
2022-11-28T09:59:23.381Z,10.57
2022-11-28T10:01:56.750Z,11.23
2022-11-28T10:04:33.433Z,12.40
2022-11-28T10:07:11.034Z,10.18
2022-11-28T10:09:51.759Z,10.45
2022-11-28T10:12:30.777Z,10.30
2022-11-28T10:15:09.365Z,10.70
2022-11-28T10:17:44.755Z,10.32
2022-11-28T10:20:17.895Z,10.80
2022-11-28T10:22:50.769Z,12.93
2022-11-28T10:25:22.806Z,10.45
2022-11-28T10:27:51.187Z,10.50
2022-11-28T10:30:22.910Z,10.13
2022-11-28T10:32:57.165Z,9.93
2022-11-28T10:35:30.850Z,11.70
2022-11-28T10:37:59.251Z,11.45
2022-11-28T10:40:39.912Z,11.75
2022-11-28T10:43:17.458Z,9.60
2022-11-28T10:45:51.135Z,10.00
2022-11-28T10:48:39.544Z,10.02
2022-11-28T10:51:22.073Z,8.68
2022-11-28T10:54:06.892Z,9.90
2022-11-28T10:56:43.029Z,9.63
2022-11-28T10:59:22.904Z,9.02
2022-11-28T11:01:52.223Z,9.65
2022-11-28T11:04:22.675Z,10.05
2022-11-28T11:07:15.045Z,10.77
2022-11-28T11:09:46.601Z,10.52
2022-11-28T11:12:20.640Z,10.40
2022-11-28T11:14:50.004Z,10.65
2022-11-28T11:17:28.958Z,11.60
2022-11-28T11:19:58.341Z,10.18
2022-11-28T11:22:29.140Z,10.30
2022-11-28T11:25:17.471Z,10.07
2022-11-28T11:27:49.628Z,10.13
2022-11-28T11:30:22.600Z,10.50
2022-11-28T11:32:51.748Z,11.10
2022-11-28T11:35:23.810Z,10.85
2022-11-28T11:37:51.920Z,10.63
2022-11-28T11:40:26.346Z,11.23
2022-11-28T11:42:55.792Z,9.82
2022-11-28T11:45:31.437Z,10.52
2022-11-28T11:47:58.976Z,9.65
2022-11-28T11:50:29.868Z,9.60
2022-11-28T11:53:02.724Z,9.27
2022-11-28T11:55:33.893Z,10.02
2022-11-28T11:58:06.076Z,10.10
2022-11-28T12:00:37.743Z,9.30
2022-11-28T12:03:12.350Z,9.18
2022-11-28T12:06:13.394Z,9.25
2022-11-28T12:08:43.076Z,9.75
2022-11-28T12:11:18.004Z,9.65
2022-11-28T12:13:45.817Z,10.07
2022-11-28T12:16:34.977Z,9.52
2022-11-28T12:19:14.666Z,9.82
2022-11-28T12:21:55.062Z,10.05
2022-11-28T12:24:30.421Z,9.18
2022-11-28T12:27:06.766Z,9.35
2022-11-28T12:29:49.067Z,8.88
2022-11-28T12:32:28.407Z,9.68
2022-11-28T12:35:11.282Z,9.73
2022-11-28T12:40:48.612Z,10.45
2022-11-28T12:43:30.555Z,11.52
2022-11-28T12:46:06.797Z,12.48
2022-11-28T12:48:53.573Z,11.60
2022-11-28T12:51:36.666Z,12.70
2022-11-28T12:54:22.020Z,12.73
2022-11-28T12:56:58.774Z,13.05
2022-11-28T12:59:36.889Z,12.80
2022-11-28T13:02:29.880Z,13.73
2022-11-28T13:05:12.065Z,11.93
2022-11-28T13:07:48.131Z,12.90
2022-11-28T13:10:23.325Z,12.65
2022-11-28T13:12:58.539Z,12.93
2022-11-28T13:15:44.391Z,13.05
2022-11-28T13:18:24.322Z,13.88
2022-11-28T13:20:55.829Z,12.30
2022-11-28T13:23:29.538Z,12.57
2022-11-28T13:26:05.633Z,12.77
2022-11-28T13:28:39.757Z,11.77
2022-11-28T13:31:22.710Z,13.40
2022-11-28T13:33:53.531Z,13.23
2022-11-28T13:39:30.945Z,12.20
2022-11-28T13:45:00.496Z,11.82
2022-11-28T13:47:31.894Z,12.07
2022-11-28T13:50:36.308Z,11.63
2022-11-28T13:53:20.152Z,11.63
2022-11-28T13:55:48.787Z,11.13
2022-11-28T13:58:25.994Z,11.13
2022-11-28T14:01:03.460Z,11.48
2022-11-28T14:03:34.490Z,12.27
2022-11-28T14:06:04.400Z,11.90
2022-11-28T14:08:34.885Z,12.52
2022-11-28T14:11:25.796Z,12.95
2022-11-28T14:14:08.929Z,12.10
2022-11-28T14:16:52.126Z,11.88
2022-11-28T14:19:32.297Z,11.45
2022-11-28T14:22:14.518Z,11.95
2022-11-28T14:24:54.399Z,12.05
2022-11-28T14:27:25.244Z,12.55
2022-11-28T14:29:54.879Z,13.18
2022-11-28T14:32:33.297Z,12.57
2022-11-28T14:35:02.912Z,12.45
2022-11-28T14:37:53.132Z,13.70
2022-11-28T14:41:05.747Z,12.65
2022-11-28T14:43:35.723Z,12.60
2022-11-28T14:46:33.231Z,13.75
2022-11-28T14:49:19.244Z,13.60
2022-11-28T14:52:30.692Z,14.77
2022-11-28T14:57:27.990Z,12.57
2022-11-28T14:59:57.879Z,12.48
2022-11-28T15:02:48.311Z,12.82
2022-11-28T15:05:29.833Z,13.75
2022-11-28T15:08:16.331Z,13.25
2022-11-28T15:10:50.729Z,13.88
2022-11-28T15:13:38.943Z,12.40
2022-11-28T15:16:11.891Z,13.43
2022-11-28T15:18:43.346Z,12.82
2022-11-28T15:21:16.385Z,12.00
2022-11-28T15:23:46.828Z,12.45
2022-11-28T15:26:19.984Z,12.85
2022-11-28T15:28:46.964Z,14.23
2022-11-28T15:31:21.703Z,14.25
2022-11-28T15:33:50.147Z,13.45
2022-11-28T15:36:26.174Z,14.57
2022-11-28T15:38:55.198Z,15.50
2022-11-28T15:41:24.240Z,14.05
2022-11-28T15:43:52.312Z,14.10
2022-11-28T15:46:26.002Z,14.95
2022-11-28T15:48:53.768Z,13.93
2022-11-28T15:51:29.614Z,14.65
2022-11-28T15:53:59.734Z,15.10
2022-11-28T15:56:27.011Z,14.10
2022-11-28T15:58:54.547Z,15.73
2022-11-28T16:01:23.730Z,15.60
2022-11-28T16:06:23.654Z,16.00
2022-11-28T16:08:54.425Z,17.42
2022-11-28T16:11:25.339Z,17.38
2022-11-28T16:13:54.120Z,16.88
2022-11-28T16:16:25.650Z,17.38
2022-11-28T16:18:57.010Z,16.50
2022-11-28T16:21:28.560Z,16.88
2022-11-28T16:24:00.767Z,16.25
2022-11-28T16:26:35.022Z,17.33
2022-11-28T16:29:11.853Z,18.45
2022-11-28T16:31:39.834Z,18.25
2022-11-28T16:34:12.483Z,18.80
2022-11-28T16:36:40.069Z,19.25
2022-11-28T16:39:14.540Z,19.40
2022-11-28T16:41:50.144Z,17.67
2022-11-28T16:44:22.116Z,17.80
2022-11-28T16:46:51.800Z,17.70
2022-11-28T16:49:34.994Z,17.23
2022-11-28T16:52:49.551Z,17.15
2022-11-28T16:55:44.701Z,16.35
2022-11-28T16:58:16.558Z,16.88
2022-11-28T17:00:47.831Z,18.13
2022-11-28T17:03:44.916Z,18.52
2022-11-28T17:06:16.675Z,19.15
2022-11-28T17:08:44.076Z,18.08
2022-11-28T17:11:14.267Z,19.52
2022-11-28T17:13:42.937Z,20.08
2022-11-28T17:16:21.356Z,20.75
2022-11-28T17:18:48.979Z,20.50
2022-11-28T17:21:18.606Z,21.33
2022-11-28T17:23:46.219Z,21.17
2022-11-28T17:26:13.146Z,22.20
2022-11-28T17:28:40.475Z,21.55
2022-11-28T17:31:11.252Z,22.48
2022-11-28T17:33:43.226Z,21.95
2022-11-28T17:36:13.457Z,22.63
2022-11-28T17:38:40.860Z,22.75
2022-11-28T17:41:12.944Z,22.75
2022-11-28T17:43:40.881Z,22.85
2022-11-28T17:46:11.721Z,22.27
2022-11-28T17:48:39.108Z,22.58
2022-11-28T17:51:08.766Z,28.13
2022-11-28T17:53:40.391Z,23.45
2022-11-28T17:56:10.607Z,23.17
2022-11-28T17:58:38.412Z,23.05
2022-11-28T18:01:11.423Z,22.25
2022-11-28T18:03:39.938Z,21.80
2022-11-28T18:06:14.095Z,22.92
2022-11-28T18:08:41.303Z,21.13
2022-11-28T18:11:11.123Z,21.80
2022-11-28T18:13:38.608Z,19.58
2022-11-28T18:16:06.303Z,20.17
2022-11-28T18:18:35.052Z,19.27
2022-11-28T18:21:02.079Z,19.45
2022-11-28T18:23:29.389Z,19.63
2022-11-28T18:25:56.651Z,18.80
2022-11-28T18:28:24.678Z,19.77
2022-11-28T18:30:51.793Z,20.15
2022-11-28T18:33:19.027Z,22.33
2022-11-28T18:35:47.640Z,20.95
2022-11-28T18:38:14.898Z,22.15
2022-11-28T18:40:41.784Z,21.92
2022-11-28T18:43:10.380Z,24.33
2022-11-28T18:45:37.359Z,22.77
2022-11-28T18:48:04.913Z,20.92
2022-11-28T18:50:32.206Z,20.40
2022-11-28T18:53:00.908Z,21.50
2022-11-28T18:55:27.866Z,19.77
2022-11-28T18:57:55.147Z,20.00
2022-11-28T19:00:23.316Z,21.77
2022-11-28T19:02:52.125Z,21.77
2022-11-28T19:05:19.218Z,22.15
2022-11-28T19:07:46.432Z,21.83
2022-11-28T19:10:14.912Z,20.77
2022-11-28T19:12:42.223Z,21.75
2022-11-28T19:15:11.730Z,21.05
2022-11-28T19:17:39.118Z,20.80
2022-11-28T19:20:07.311Z,21.33
2022-11-28T19:22:35.669Z,20.92
2022-11-28T19:25:02.719Z,21.83
2022-11-28T19:27:31.404Z,21.92
2022-11-28T19:29:58.319Z,21.70
2022-11-28T19:32:27.685Z,21.33
2022-11-28T19:34:54.784Z,19.92
2022-11-28T19:37:22.207Z,21.33
2022-11-28T19:39:49.096Z,19.98
2022-11-28T19:42:16.390Z,20.67
2022-11-28T19:44:44.672Z,21.02
2022-11-28T19:47:11.916Z,21.45
2022-11-28T19:49:39.000Z,23.27
2022-11-28T19:52:06.255Z,21.67
2022-11-28T19:54:34.776Z,23.23
2022-11-28T19:57:02.022Z,20.48
2022-11-28T19:59:30.448Z,20.23
2022-11-28T20:01:59.051Z,23.40
2022-11-28T20:04:26.403Z,20.75
2022-11-28T20:06:53.651Z,22.10
2022-11-28T20:09:20.569Z,22.63
2022-11-28T20:11:47.715Z,21.98
2022-11-28T20:14:16.857Z,20.80
2022-11-28T20:16:44.687Z,22.42
2022-11-28T20:19:14.812Z,22.55
2022-11-28T20:21:42.239Z,20.73
2022-11-28T20:24:10.314Z,21.10
2022-11-28T20:26:39.982Z,21.92
2022-11-28T20:29:07.969Z,20.20
2022-11-28T20:31:36.988Z,21.30
2022-11-28T20:34:04.578Z,21.83
2022-11-28T20:36:34.116Z,21.48
2022-11-28T20:39:03.755Z,22.60
2022-11-28T20:41:31.322Z,21.52
2022-11-28T20:43:59.863Z,20.33
2022-11-28T20:46:30.184Z,21.55
2022-11-28T20:48:59.044Z,23.10
2022-11-28T20:51:28.491Z,22.98
2022-11-28T20:58:55.315Z,21.63
2022-11-28T21:01:24.809Z,27.05
2022-11-28T21:03:52.767Z,35.53
2022-11-28T21:06:20.477Z,41.53
2022-11-28T21:08:47.888Z,44.00
2022-11-28T21:11:43.531Z,39.33
2022-11-28T21:14:06.567Z,30.02
2022-11-28T21:16:35.127Z,29.52
2022-11-28T21:19:05.222Z,27.25
2022-11-28T21:21:33.617Z,26.98
2022-11-28T21:24:03.434Z,25.08
2022-11-28T21:26:37.635Z,24.35
2022-11-28T21:29:09.283Z,23.17
2022-11-28T21:31:39.577Z,22.90
2022-11-28T21:34:06.591Z,23.42
2022-11-28T21:36:33.743Z,24.48
2022-11-28T21:39:01.752Z,23.50
2022-11-28T21:41:31.161Z,24.02
2022-11-28T21:46:27.938Z,22.23
2022-11-28T21:48:55.042Z,22.92
2022-11-28T21:51:25.675Z,25.05
2022-11-28T21:53:58.983Z,23.83
2022-11-28T21:56:26.666Z,23.70
2022-11-28T21:58:54.002Z,23.63
2022-11-28T22:01:22.608Z,24.52
2022-11-28T22:03:49.676Z,23.60
2022-11-28T22:06:20.047Z,24.98
2022-11-28T22:08:48.563Z,25.23
2022-11-28T22:11:16.160Z,26.05
2022-11-28T22:13:45.223Z,26.77
2022-11-28T22:16:16.044Z,27.25
2022-11-28T22:18:45.661Z,28.98
2022-11-28T22:21:49.892Z,28.13
2022-11-28T22:24:02.581Z,27.10
2022-11-28T22:26:29.726Z,27.75
2022-11-28T22:28:58.634Z,31.45
2022-11-28T22:31:25.972Z,30.73
2022-11-28T22:33:54.365Z,29.92
2022-11-28T22:36:21.887Z,29.95
2022-11-28T22:38:53.575Z,29.70
2022-11-28T22:41:28.496Z,27.80
2022-11-28T22:43:57.107Z,26.88
2022-11-28T22:46:24.458Z,28.60
2022-11-28T22:48:52.045Z,29.05
2022-11-28T22:51:21.952Z,30.17
2022-11-28T22:53:52.796Z,28.92
2022-11-28T22:56:19.971Z,28.77
2022-11-28T22:58:46.852Z,29.33
2022-11-28T23:01:15.747Z,28.58
2022-11-28T23:03:44.231Z,28.60
2022-11-28T23:06:13.300Z,27.13
2022-11-28T23:08:42.233Z,27.45
2022-11-28T23:11:12.496Z,25.83
2022-11-28T23:13:39.910Z,27.30
2022-11-28T23:16:15.327Z,26.48
2022-11-28T23:18:43.205Z,25.60
2022-11-28T23:21:16.044Z,26.05
2022-11-28T23:23:45.831Z,26.20
2022-11-28T23:26:14.838Z,26.38
2022-11-28T23:28:42.276Z,26.20
2022-11-28T23:31:13.116Z,28.40
2022-11-28T23:33:40.485Z,26.75
2022-11-28T23:36:13.402Z,26.45
2022-11-28T23:38:40.342Z,25.33
2022-11-28T23:41:09.127Z,22.52
2022-11-28T23:43:36.013Z,20.70
2022-11-28T23:46:03.811Z,21.42
2022-11-28T23:48:31.022Z,18.10
2022-11-28T23:50:58.263Z,17.98
2022-11-28T23:53:25.401Z,16.27
2022-11-28T23:55:52.508Z,21.17
2022-11-28T23:58:20.975Z,19.77
